Terminal Aerodrome Forecast
Issued by NWS

Home | Current Version | Previous Version | Text Only | Print | Product List | Glossary On
Versions: 1 2 3 4 5 6 7 8 9 10 11 12 13 14 15 16 17 18
476
FTUS43 KPAH 131134
TAFCGI
TAF
KCGI 131134Z 1312/1412 01012G19KT P6SM OVC120
     FM131800 02008KT P6SM OVC090
     FM140000 07007KT P6SM OVC070=

USA.gov is the U.S. government's official web portal to all federal, state and local government web resources and services.